sensor_id;sensor_type;location;lat;lon;timestamp;P1;durP1;ratioP1;P2;durP2;ratioP2
64674;SDS011;51090;51.512;11.332;2023-04-15T00:00:17;6.97;;;4.05;;
64674;SDS011;51090;51.512;11.332;2023-04-15T00:02:43;6.82;;;3.67;;
64674;SDS011;51090;51.512;11.332;2023-04-15T00:05:09;7.03;;;4.05;;
64674;SDS011;51090;51.512;11.332;2023-04-15T00:07:35;6.65;;;3.75;;
64674;SDS011;51090;51.512;11.332;2023-04-15T00:10:00;9.50;;;4.50;;
64674;SDS011;51090;51.512;11.332;2023-04-15T00:12:27;6.82;;;4.20;;
64674;SDS011;51090;51.512;11.332;2023-04-15T00:14:53;9.82;;;4.20;;
64674;SDS011;51090;51.512;11.332;2023-04-15T00:17:21;7.18;;;4.22;;
64674;SDS011;51090;51.512;11.332;2023-04-15T00:19:46;9.15;;;4.68;;
64674;SDS011;51090;51.512;11.332;2023-04-15T00:22:12;8.70;;;4.30;;
64674;SDS011;51090;51.512;11.332;2023-04-15T00:24:38;8.82;;;4.00;;
64674;SDS011;51090;51.512;11.332;2023-04-15T00:27:04;12.45;;;5.55;;
64674;SDS011;51090;51.512;11.332;2023-04-15T00:29:30;6.78;;;3.90;;
64674;SDS011;51090;51.512;11.332;2023-04-15T00:31:56;7.00;;;4.15;;
64674;SDS011;51090;51.512;11.332;2023-04-15T00:34:22;10.98;;;4.90;;
64674;SDS011;51090;51.512;11.332;2023-04-15T00:36:48;8.52;;;4.22;;
64674;SDS011;51090;51.512;11.332;2023-04-15T00:39:15;7.07;;;4.10;;
64674;SDS011;51090;51.512;11.332;2023-04-15T00:41:41;9.07;;;4.55;;
64674;SDS011;51090;51.512;11.332;2023-04-15T00:44:08;8.20;;;4.32;;
64674;SDS011;51090;51.512;11.332;2023-04-15T00:46:34;10.38;;;4.88;;
64674;SDS011;51090;51.512;11.332;2023-04-15T00:49:05;8.85;;;4.25;;
64674;SDS011;51090;51.512;11.332;2023-04-15T00:51:32;9.35;;;5.03;;
64674;SDS011;51090;51.512;11.332;2023-04-15T00:54:00;9.52;;;5.13;;
64674;SDS011;51090;51.512;11.332;2023-04-15T00:56:27;8.40;;;4.28;;
64674;SDS011;51090;51.512;11.332;2023-04-15T00:58:54;6.68;;;3.60;;
64674;SDS011;51090;51.512;11.332;2023-04-15T01:01:21;6.80;;;3.78;;
64674;SDS011;51090;51.512;11.332;2023-04-15T01:03:48;7.72;;;4.68;;
64674;SDS011;51090;51.512;11.332;2023-04-15T01:06:15;6.82;;;4.07;;
64674;SDS011;51090;51.512;11.332;2023-04-15T01:08:41;7.75;;;4.35;;
64674;SDS011;51090;51.512;11.332;2023-04-15T01:11:08;6.18;;;3.95;;
64674;SDS011;51090;51.512;11.332;2023-04-15T01:13:34;6.97;;;4.25;;
64674;SDS011;51090;51.512;11.332;2023-04-15T01:16:01;6.05;;;3.90;;
64674;SDS011;51090;51.512;11.332;2023-04-15T01:18:27;6.88;;;4.05;;
64674;SDS011;51090;51.512;11.332;2023-04-15T01:20:54;6.93;;;4.00;;
64674;SDS011;51090;51.512;11.332;2023-04-15T01:23:20;9.93;;;5.22;;
64674;SDS011;51090;51.512;11.332;2023-04-15T01:25:47;9.15;;;5.18;;
64674;SDS011;51090;51.512;11.332;2023-04-15T01:28:14;8.23;;;4.47;;
64674;SDS011;51090;51.512;11.332;2023-04-15T01:30:40;9.48;;;5.38;;
64674;SDS011;51090;51.512;11.332;2023-04-15T01:33:06;9.02;;;4.93;;
64674;SDS011;51090;51.512;11.332;2023-04-15T01:35:32;8.90;;;4.82;;
64674;SDS011;51090;51.512;11.332;2023-04-15T01:38:03;8.90;;;5.07;;
64674;SDS011;51090;51.512;11.332;2023-04-15T01:40:32;8.48;;;4.70;;
64674;SDS011;51090;51.512;11.332;2023-04-15T01:42:59;10.23;;;5.47;;
64674;SDS011;51090;51.512;11.332;2023-04-15T01:45:26;8.57;;;4.45;;
64674;SDS011;51090;51.512;11.332;2023-04-15T01:47:52;9.45;;;5.70;;
64674;SDS011;51090;51.512;11.332;2023-04-15T01:50:18;9.65;;;5.22;;
64674;SDS011;51090;51.512;11.332;2023-04-15T01:52:44;7.93;;;4.53;;
64674;SDS011;51090;51.512;11.332;2023-04-15T01:55:13;9.85;;;5.15;;
64674;SDS011;51090;51.512;11.332;2023-04-15T01:57:39;10.13;;;4.47;;
64674;SDS011;51090;51.512;11.332;2023-04-15T02:00:05;6.57;;;4.18;;
64674;SDS011;51090;51.512;11.332;2023-04-15T02:02:32;7.72;;;3.65;;
64674;SDS011;51090;51.512;11.332;2023-04-15T02:04:58;7.82;;;4.32;;
64674;SDS011;51090;51.512;11.332;2023-04-15T02:07:23;6.82;;;3.97;;
64674;SDS011;51090;51.512;11.332;2023-04-15T02:09:50;6.60;;;4.07;;
64674;SDS011;51090;51.512;11.332;2023-04-15T02:12:16;7.32;;;3.72;;
64674;SDS011;51090;51.512;11.332;2023-04-15T02:14:41;7.22;;;4.03;;
64674;SDS011;51090;51.512;11.332;2023-04-15T02:17:07;7.97;;;4.18;;
64674;SDS011;51090;51.512;11.332;2023-04-15T02:19:33;8.00;;;4.70;;
64674;SDS011;51090;51.512;11.332;2023-04-15T02:21:59;9.10;;;5.03;;
64674;SDS011;51090;51.512;11.332;2023-04-15T02:24:28;9.00;;;5.18;;
64674;SDS011;51090;51.512;11.332;2023-04-15T02:26:55;9.48;;;5.45;;
64674;SDS011;51090;51.512;11.332;2023-04-15T02:29:21;10.02;;;5.32;;
64674;SDS011;51090;51.512;11.332;2023-04-15T02:31:47;9.02;;;5.38;;
64674;SDS011;51090;51.512;11.332;2023-04-15T02:34:13;8.40;;;4.93;;
64674;SDS011;51090;51.512;11.332;2023-04-15T02:36:39;9.20;;;5.10;;
64674;SDS011;51090;51.512;11.332;2023-04-15T02:39:05;10.90;;;6.05;;
64674;SDS011;51090;51.512;11.332;2023-04-15T02:41:31;9.68;;;5.47;;
64674;SDS011;51090;51.512;11.332;2023-04-15T02:43:57;10.57;;;5.63;;
64674;SDS011;51090;51.512;11.332;2023-04-15T02:46:23;9.27;;;5.47;;
64674;SDS011;51090;51.512;11.332;2023-04-15T02:48:49;9.48;;;5.28;;
64674;SDS011;51090;51.512;11.332;2023-04-15T02:51:15;11.77;;;5.88;;
64674;SDS011;51090;51.512;11.332;2023-04-15T02:53:44;10.25;;;5.75;;
64674;SDS011;51090;51.512;11.332;2023-04-15T02:56:10;13.07;;;7.05;;
64674;SDS011;51090;51.512;11.332;2023-04-15T02:58:36;10.88;;;5.85;;
64674;SDS011;51090;51.512;11.332;2023-04-15T03:01:04;10.00;;;5.07;;
64674;SDS011;51090;51.512;11.332;2023-04-15T03:03:31;9.80;;;5.03;;
64674;SDS011;51090;51.512;11.332;2023-04-15T03:05:57;8.63;;;4.70;;
64674;SDS011;51090;51.512;11.332;2023-04-15T03:08:22;10.20;;;5.35;;
64674;SDS011;51090;51.512;11.332;2023-04-15T03:10:48;9.75;;;5.70;;
64674;SDS011;51090;51.512;11.332;2023-04-15T03:13:16;8.25;;;5.03;;
64674;SDS011;51090;51.512;11.332;2023-04-15T03:15:42;9.75;;;5.10;;
64674;SDS011;51090;51.512;11.332;2023-04-15T03:18:10;9.23;;;4.90;;
64674;SDS011;51090;51.512;11.332;2023-04-15T03:20:36;8.98;;;5.10;;
64674;SDS011;51090;51.512;11.332;2023-04-15T03:23:02;8.73;;;4.47;;
64674;SDS011;51090;51.512;11.332;2023-04-15T03:25:28;11.85;;;5.10;;
64674;SDS011;51090;51.512;11.332;2023-04-15T03:27:53;10.30;;;4.82;;
64674;SDS011;51090;51.512;11.332;2023-04-15T03:30:19;8.32;;;4.45;;
64674;SDS011;51090;51.512;11.332;2023-04-15T03:32:45;9.07;;;4.20;;
64674;SDS011;51090;51.512;11.332;2023-04-15T03:35:11;11.00;;;4.70;;
64674;SDS011;51090;51.512;11.332;2023-04-15T03:37:36;9.07;;;4.22;;
64674;SDS011;51090;51.512;11.332;2023-04-15T03:40:02;7.85;;;4.03;;
64674;SDS011;51090;51.512;11.332;2023-04-15T03:42:28;8.07;;;4.03;;
64674;SDS011;51090;51.512;11.332;2023-04-15T03:44:54;10.30;;;4.35;;
64674;SDS011;51090;51.512;11.332;2023-04-15T03:47:19;7.18;;;3.40;;
64674;SDS011;51090;51.512;11.332;2023-04-15T03:49:45;8.07;;;3.80;;
64674;SDS011;51090;51.512;11.332;2023-04-15T03:52:11;6.07;;;3.10;;
64674;SDS011;51090;51.512;11.332;2023-04-15T03:54:36;7.85;;;3.35;;
64674;SDS011;51090;51.512;11.332;2023-04-15T03:57:02;5.65;;;2.85;;
64674;SDS011;51090;51.512;11.332;2023-04-15T03:59:28;4.97;;;2.17;;
64674;SDS011;51090;51.512;11.332;2023-04-15T04:01:53;4.80;;;2.40;;
64674;SDS011;51090;51.512;11.332;2023-04-15T04:04:19;5.90;;;2.75;;
64674;SDS011;51090;51.512;11.332;2023-04-15T04:06:45;5.55;;;2.80;;
64674;SDS011;51090;51.512;11.332;2023-04-15T04:09:10;6.05;;;3.40;;
64674;SDS011;51090;51.512;11.332;2023-04-15T04:11:36;5.82;;;2.80;;
64674;SDS011;51090;51.512;11.332;2023-04-15T04:14:02;5.32;;;2.67;;
64674;SDS011;51090;51.512;11.332;2023-04-15T04:16:27;5.75;;;2.67;;
64674;SDS011;51090;51.512;11.332;2023-04-15T04:18:53;4.43;;;2.40;;
64674;SDS011;51090;51.512;11.332;2023-04-15T04:21:19;5.28;;;2.50;;
64674;SDS011;51090;51.512;11.332;2023-04-15T04:23:45;5.57;;;2.50;;
64674;SDS011;51090;51.512;11.332;2023-04-15T04:26:11;5.82;;;2.50;;
64674;SDS011;51090;51.512;11.332;2023-04-15T04:28:36;6.28;;;3.03;;
64674;SDS011;51090;51.512;11.332;2023-04-15T04:31:04;5.55;;;2.60;;
64674;SDS011;51090;51.512;11.332;2023-04-15T04:33:31;5.38;;;2.38;;
64674;SDS011;51090;51.512;11.332;2023-04-15T04:35:57;5.13;;;2.47;;
64674;SDS011;51090;51.512;11.332;2023-04-15T04:38:23;4.50;;;2.33;;
64674;SDS011;51090;51.512;11.332;2023-04-15T04:40:48;5.70;;;2.72;;
64674;SDS011;51090;51.512;11.332;2023-04-15T04:43:14;6.05;;;2.90;;
64674;SDS011;51090;51.512;11.332;2023-04-15T04:45:40;6.82;;;2.08;;
64674;SDS011;51090;51.512;11.332;2023-04-15T04:48:06;5.45;;;2.63;;
64674;SDS011;51090;51.512;11.332;2023-04-15T04:50:33;7.55;;;2.75;;
64674;SDS011;51090;51.512;11.332;2023-04-15T04:52:59;5.90;;;2.53;;
64674;SDS011;51090;51.512;11.332;2023-04-15T04:55:26;6.03;;;2.63;;
64674;SDS011;51090;51.512;11.332;2023-04-15T04:57:51;5.93;;;2.88;;
64674;SDS011;51090;51.512;11.332;2023-04-15T05:00:17;6.93;;;3.03;;
64674;SDS011;51090;51.512;11.332;2023-04-15T05:02:43;6.07;;;2.97;;
64674;SDS011;51090;51.512;11.332;2023-04-15T05:05:09;7.72;;;3.25;;
64674;SDS011;51090;51.512;11.332;2023-04-15T05:07:36;6.13;;;3.05;;
64674;SDS011;51090;51.512;11.332;2023-04-15T05:10:02;6.55;;;3.35;;
64674;SDS011;51090;51.512;11.332;2023-04-15T05:12:28;8.27;;;3.70;;
64674;SDS011;51090;51.512;11.332;2023-04-15T05:14:54;6.80;;;3.30;;
64674;SDS011;51090;51.512;11.332;2023-04-15T05:17:20;11.65;;;4.80;;
64674;SDS011;51090;51.512;11.332;2023-04-15T05:19:45;9.38;;;4.55;;
64674;SDS011;51090;51.512;11.332;2023-04-15T05:22:11;11.88;;;4.78;;
64674;SDS011;51090;51.512;11.332;2023-04-15T05:24:37;8.45;;;4.18;;
64674;SDS011;51090;51.512;11.332;2023-04-15T05:27:02;10.55;;;4.93;;
64674;SDS011;51090;51.512;11.332;2023-04-15T05:29:28;9.32;;;4.68;;
64674;SDS011;51090;51.512;11.332;2023-04-15T05:31:54;10.45;;;4.65;;
64674;SDS011;51090;51.512;11.332;2023-04-15T05:34:20;10.95;;;5.15;;
64674;SDS011;51090;51.512;11.332;2023-04-15T05:36:46;10.32;;;4.13;;
64674;SDS011;51090;51.512;11.332;2023-04-15T05:39:12;9.90;;;4.53;;
64674;SDS011;51090;51.512;11.332;2023-04-15T05:41:37;10.95;;;5.63;;
64674;SDS011;51090;51.512;11.332;2023-04-15T05:44:03;9.20;;;4.28;;
64674;SDS011;51090;51.512;11.332;2023-04-15T05:46:29;9.77;;;4.40;;
64674;SDS011;51090;51.512;11.332;2023-04-15T05:48:54;13.13;;;5.53;;
64674;SDS011;51090;51.512;11.332;2023-04-15T05:51:20;10.30;;;5.22;;
64674;SDS011;51090;51.512;11.332;2023-04-15T05:53:46;11.10;;;4.97;;
64674;SDS011;51090;51.512;11.332;2023-04-15T05:56:11;9.55;;;5.00;;
64674;SDS011;51090;51.512;11.332;2023-04-15T05:58:37;10.15;;;4.70;;
64674;SDS011;51090;51.512;11.332;2023-04-15T06:01:03;12.45;;;5.15;;
64674;SDS011;51090;51.512;11.332;2023-04-15T06:03:29;12.60;;;4.82;;
64674;SDS011;51090;51.512;11.332;2023-04-15T06:05:55;10.93;;;5.10;;
64674;SDS011;51090;51.512;11.332;2023-04-15T06:08:20;10.57;;;5.10;;
64674;SDS011;51090;51.512;11.332;2023-04-15T06:10:46;12.98;;;5.45;;
64674;SDS011;51090;51.512;11.332;2023-04-15T06:13:12;11.88;;;5.05;;
64674;SDS011;51090;51.512;11.332;2023-04-15T06:15:38;9.88;;;4.45;;
64674;SDS011;51090;51.512;11.332;2023-04-15T06:18:03;9.55;;;4.90;;
64674;SDS011;51090;51.512;11.332;2023-04-15T06:20:29;9.00;;;4.20;;
64674;SDS011;51090;51.512;11.332;2023-04-15T06:22:55;11.10;;;5.30;;
64674;SDS011;51090;51.512;11.332;2023-04-15T06:25:21;7.63;;;3.90;;
64674;SDS011;51090;51.512;11.332;2023-04-15T06:27:47;11.90;;;4.70;;
64674;SDS011;51090;51.512;11.332;2023-04-15T06:30:13;9.88;;;4.47;;
64674;SDS011;51090;51.512;11.332;2023-04-15T06:32:39;10.43;;;5.20;;
64674;SDS011;51090;51.512;11.332;2023-04-15T06:35:05;10.13;;;4.82;;
64674;SDS011;51090;51.512;11.332;2023-04-15T06:37:30;10.13;;;5.15;;
64674;SDS011;51090;51.512;11.332;2023-04-15T06:39:56;12.85;;;4.35;;
64674;SDS011;51090;51.512;11.332;2023-04-15T06:42:22;7.22;;;3.90;;
64674;SDS011;51090;51.512;11.332;2023-04-15T06:44:48;5.50;;;3.05;;
64674;SDS011;51090;51.512;11.332;2023-04-15T06:47:14;6.97;;;3.58;;
64674;SDS011;51090;51.512;11.332;2023-04-15T06:49:40;5.80;;;2.75;;
64674;SDS011;51090;51.512;11.332;2023-04-15T06:52:07;8.50;;;3.80;;
64674;SDS011;51090;51.512;11.332;2023-04-15T06:54:34;7.75;;;3.92;;
64674;SDS011;51090;51.512;11.332;2023-04-15T06:56:59;5.63;;;2.55;;
64674;SDS011;51090;51.512;11.332;2023-04-15T06:59:25;6.57;;;3.40;;
64674;SDS011;51090;51.512;11.332;2023-04-15T07:01:51;6.28;;;3.05;;
64674;SDS011;51090;51.512;11.332;2023-04-15T07:04:17;6.65;;;3.15;;
64674;SDS011;51090;51.512;11.332;2023-04-15T07:06:43;5.20;;;2.83;;
64674;SDS011;51090;51.512;11.332;2023-04-15T07:09:09;6.60;;;3.40;;
64674;SDS011;51090;51.512;11.332;2023-04-15T07:11:34;7.28;;;3.47;;
64674;SDS011;51090;51.512;11.332;2023-04-15T07:14:00;5.32;;;2.90;;
64674;SDS011;51090;51.512;11.332;2023-04-15T07:16:26;7.30;;;3.53;;
64674;SDS011;51090;51.512;11.332;2023-04-15T07:18:52;7.22;;;3.17;;
64674;SDS011;51090;51.512;11.332;2023-04-15T07:21:18;7.70;;;3.55;;
64674;SDS011;51090;51.512;11.332;2023-04-15T07:23:44;6.55;;;3.20;;
64674;SDS011;51090;51.512;11.332;2023-04-15T07:26:09;6.63;;;3.17;;
64674;SDS011;51090;51.512;11.332;2023-04-15T07:28:36;4.75;;;2.65;;
64674;SDS011;51090;51.512;11.332;2023-04-15T07:31:01;6.38;;;3.65;;
64674;SDS011;51090;51.512;11.332;2023-04-15T07:33:28;5.28;;;2.83;;
64674;SDS011;51090;51.512;11.332;2023-04-15T07:35:54;5.72;;;2.90;;
64674;SDS011;51090;51.512;11.332;2023-04-15T07:38:20;5.45;;;2.75;;
64674;SDS011;51090;51.512;11.332;2023-04-15T07:40:47;4.57;;;2.40;;
64674;SDS011;51090;51.512;11.332;2023-04-15T07:43:13;7.53;;;3.13;;
64674;SDS011;51090;51.512;11.332;2023-04-15T07:45:39;6.35;;;3.15;;
64674;SDS011;51090;51.512;11.332;2023-04-15T07:48:05;6.50;;;3.00;;
64674;SDS011;51090;51.512;11.332;2023-04-15T07:50:31;6.47;;;3.75;;
64674;SDS011;51090;51.512;11.332;2023-04-15T07:52:57;8.10;;;3.92;;
64674;SDS011;51090;51.512;11.332;2023-04-15T07:55:23;7.15;;;3.55;;
64674;SDS011;51090;51.512;11.332;2023-04-15T07:57:49;8.18;;;3.10;;
64674;SDS011;51090;51.512;11.332;2023-04-15T08:00:15;6.20;;;3.25;;
64674;SDS011;51090;51.512;11.332;2023-04-15T08:02:41;7.13;;;3.70;;
64674;SDS011;51090;51.512;11.332;2023-04-15T08:05:07;5.85;;;2.90;;
64674;SDS011;51090;51.512;11.332;2023-04-15T08:07:35;6.00;;;3.47;;
64674;SDS011;51090;51.512;11.332;2023-04-15T08:10:02;6.18;;;3.45;;
64674;SDS011;51090;51.512;11.332;2023-04-15T08:12:28;6.03;;;3.20;;
64674;SDS011;51090;51.512;11.332;2023-04-15T08:14:54;7.13;;;3.03;;
64674;SDS011;51090;51.512;11.332;2023-04-15T08:17:21;6.50;;;3.25;;
64674;SDS011;51090;51.512;11.332;2023-04-15T08:19:47;5.97;;;2.90;;
64674;SDS011;51090;51.512;11.332;2023-04-15T08:22:13;4.30;;;2.40;;
64674;SDS011;51090;51.512;11.332;2023-04-15T08:24:39;4.38;;;2.20;;
64674;SDS011;51090;51.512;11.332;2023-04-15T08:27:06;5.45;;;2.55;;
64674;SDS011;51090;51.512;11.332;2023-04-15T08:29:33;3.83;;;2.08;;
64674;SDS011;51090;51.512;11.332;2023-04-15T08:31:59;4.10;;;2.35;;
64674;SDS011;51090;51.512;11.332;2023-04-15T08:34:25;4.50;;;2.17;;
64674;SDS011;51090;51.512;11.332;2023-04-15T08:36:52;5.18;;;2.53;;
64674;SDS011;51090;51.512;11.332;2023-04-15T08:39:17;5.75;;;2.90;;
64674;SDS011;51090;51.512;11.332;2023-04-15T08:41:57;4.18;;;2.72;;
64674;SDS011;51090;51.512;11.332;2023-04-15T08:44:34;4.85;;;2.38;;
64674;SDS011;51090;51.512;11.332;2023-04-15T08:47:01;4.90;;;2.55;;
64674;SDS011;51090;51.512;11.332;2023-04-15T08:49:28;5.63;;;3.50;;
64674;SDS011;51090;51.512;11.332;2023-04-15T08:51:54;7.32;;;3.75;;
64674;SDS011;51090;51.512;11.332;2023-04-15T08:54:23;7.82;;;3.88;;
64674;SDS011;51090;51.512;11.332;2023-04-15T08:56:51;6.40;;;3.38;;
64674;SDS011;51090;51.512;11.332;2023-04-15T08:59:18;7.13;;;3.65;;
64674;SDS011;51090;51.512;11.332;2023-04-15T09:01:45;5.53;;;2.88;;
64674;SDS011;51090;51.512;11.332;2023-04-15T09:04:13;8.60;;;4.55;;
64674;SDS011;51090;51.512;11.332;2023-04-15T09:06:40;7.18;;;3.42;;
64674;SDS011;51090;51.512;11.332;2023-04-15T09:09:06;8.38;;;4.18;;
64674;SDS011;51090;51.512;11.332;2023-04-15T09:11:32;8.43;;;4.20;;
64674;SDS011;51090;51.512;11.332;2023-04-15T09:13:59;6.93;;;4.03;;
64674;SDS011;51090;51.512;11.332;2023-04-15T09:16:25;9.23;;;4.25;;
64674;SDS011;51090;51.512;11.332;2023-04-15T09:18:51;8.00;;;3.70;;
64674;SDS011;51090;51.512;11.332;2023-04-15T09:21:17;8.20;;;3.97;;
64674;SDS011;51090;51.512;11.332;2023-04-15T09:23:56;8.73;;;4.47;;
64674;SDS011;51090;51.512;11.332;2023-04-15T09:26:34;9.18;;;5.03;;
64674;SDS011;51090;51.512;11.332;2023-04-15T09:29:09;9.05;;;4.50;;
64674;SDS011;51090;51.512;11.332;2023-04-15T09:31:38;8.57;;;4.00;;
64674;SDS011;51090;51.512;11.332;2023-04-15T09:34:05;10.60;;;4.75;;
64674;SDS011;51090;51.512;11.332;2023-04-15T09:39:17;8.82;;;4.20;;
64674;SDS011;51090;51.512;11.332;2023-04-15T09:41:42;10.13;;;5.13;;
64674;SDS011;51090;51.512;11.332;2023-04-15T09:44:24;8.50;;;4.13;;
64674;SDS011;51090;51.512;11.332;2023-04-15T09:46:51;8.30;;;4.13;;
64674;SDS011;51090;51.512;11.332;2023-04-15T09:49:17;9.10;;;4.60;;
64674;SDS011;51090;51.512;11.332;2023-04-15T09:51:44;8.52;;;4.75;;
64674;SDS011;51090;51.512;11.332;2023-04-15T09:54:11;11.27;;;5.05;;
64674;SDS011;51090;51.512;11.332;2023-04-15T09:56:38;11.65;;;5.68;;
64674;SDS011;51090;51.512;11.332;2023-04-15T09:59:06;13.30;;;5.60;;
64674;SDS011;51090;51.512;11.332;2023-04-15T10:01:33;11.55;;;4.80;;
64674;SDS011;51090;51.512;11.332;2023-04-15T10:04:03;9.57;;;4.78;;
64674;SDS011;51090;51.512;11.332;2023-04-15T10:06:29;10.70;;;4.95;;
64674;SDS011;51090;51.512;11.332;2023-04-15T10:08:58;12.18;;;5.40;;
64674;SDS011;51090;51.512;11.332;2023-04-15T10:11:28;13.40;;;5.88;;
64674;SDS011;51090;51.512;11.332;2023-04-15T10:13:55;13.68;;;6.43;;
64674;SDS011;51090;51.512;11.332;2023-04-15T10:16:22;12.38;;;6.10;;
64674;SDS011;51090;51.512;11.332;2023-04-15T10:18:55;14.55;;;6.63;;
64674;SDS011;51090;51.512;11.332;2023-04-15T10:21:25;11.50;;;5.72;;
64674;SDS011;51090;51.512;11.332;2023-04-15T10:23:54;14.55;;;6.03;;
64674;SDS011;51090;51.512;11.332;2023-04-15T10:26:21;14.70;;;6.55;;
64674;SDS011;51090;51.512;11.332;2023-04-15T10:28:47;14.43;;;7.10;;
64674;SDS011;51090;51.512;11.332;2023-04-15T10:31:13;16.25;;;6.65;;
64674;SDS011;51090;51.512;11.332;2023-04-15T10:33:39;17.48;;;7.25;;
64674;SDS011;51090;51.512;11.332;2023-04-15T10:36:07;15.90;;;6.78;;
64674;SDS011;51090;51.512;11.332;2023-04-15T10:38:37;18.92;;;8.07;;
64674;SDS011;51090;51.512;11.332;2023-04-15T10:41:14;16.60;;;6.82;;
64674;SDS011;51090;51.512;11.332;2023-04-15T10:43:47;14.60;;;6.75;;
64674;SDS011;51090;51.512;11.332;2023-04-15T10:46:43;14.73;;;6.43;;
64674;SDS011;51090;51.512;11.332;2023-04-15T10:49:13;15.00;;;6.95;;
64674;SDS011;51090;51.512;11.332;2023-04-15T10:51:53;12.82;;;6.45;;
64674;SDS011;51090;51.512;11.332;2023-04-15T10:56:50;16.38;;;7.78;;
64674;SDS011;51090;51.512;11.332;2023-04-15T11:02:42;19.08;;;7.30;;
64674;SDS011;51090;51.512;11.332;2023-04-15T11:05:19;19.27;;;8.02;;
64674;SDS011;51090;51.512;11.332;2023-04-15T11:08:06;15.98;;;7.68;;
64674;SDS011;51090;51.512;11.332;2023-04-15T11:13:02;21.27;;;8.55;;
64674;SDS011;51090;51.512;11.332;2023-04-15T11:15:34;18.60;;;9.13;;
64674;SDS011;51090;51.512;11.332;2023-04-15T11:18:09;18.45;;;8.23;;
64674;SDS011;51090;51.512;11.332;2023-04-15T11:20:46;19.27;;;7.80;;
64674;SDS011;51090;51.512;11.332;2023-04-15T11:23:27;17.52;;;7.38;;
64674;SDS011;51090;51.512;11.332;2023-04-15T11:25:56;17.35;;;7.88;;
64674;SDS011;51090;51.512;11.332;2023-04-15T11:28:32;16.92;;;7.78;;
64674;SDS011;51090;51.512;11.332;2023-04-15T11:31:04;18.48;;;7.80;;
64674;SDS011;51090;51.512;11.332;2023-04-15T11:33:35;18.48;;;8.38;;
64674;SDS011;51090;51.512;11.332;2023-04-15T11:36:01;19.27;;;8.27;;
64674;SDS011;51090;51.512;11.332;2023-04-15T11:38:28;17.00;;;7.53;;
64674;SDS011;51090;51.512;11.332;2023-04-15T11:40:55;13.40;;;6.70;;
64674;SDS011;51090;51.512;11.332;2023-04-15T11:43:23;17.17;;;7.55;;
64674;SDS011;51090;51.512;11.332;2023-04-15T11:48:22;20.02;;;9.15;;
64674;SDS011;51090;51.512;11.332;2023-04-15T11:51:03;18.63;;;7.75;;
64674;SDS011;51090;51.512;11.332;2023-04-15T11:53:47;15.48;;;6.75;;
64674;SDS011;51090;51.512;11.332;2023-04-15T11:56:21;15.80;;;7.28;;
64674;SDS011;51090;51.512;11.332;2023-04-15T11:58:52;11.15;;;6.00;;
64674;SDS011;51090;51.512;11.332;2023-04-15T12:04:09;11.55;;;5.60;;
64674;SDS011;51090;51.512;11.332;2023-04-15T12:06:36;13.77;;;6.35;;
64674;SDS011;51090;51.512;11.332;2023-04-15T12:14:24;11.30;;;5.55;;
64674;SDS011;51090;51.512;11.332;2023-04-15T12:16:58;12.10;;;5.72;;
64674;SDS011;51090;51.512;11.332;2023-04-15T12:19:35;9.52;;;5.20;;
64674;SDS011;51090;51.512;11.332;2023-04-15T12:22:12;10.75;;;5.53;;
64674;SDS011;51090;51.512;11.332;2023-04-15T12:24:42;9.07;;;4.50;;
64674;SDS011;51090;51.512;11.332;2023-04-15T12:27:11;12.95;;;4.70;;
64674;SDS011;51090;51.512;11.332;2023-04-15T12:29:41;8.05;;;4.18;;
64674;SDS011;51090;51.512;11.332;2023-04-15T12:32:08;10.35;;;5.18;;
64674;SDS011;51090;51.512;11.332;2023-04-15T12:34:39;8.23;;;4.28;;
64674;SDS011;51090;51.512;11.332;2023-04-15T12:37:13;8.65;;;4.60;;
64674;SDS011;51090;51.512;11.332;2023-04-15T12:39:41;7.97;;;3.83;;
64674;SDS011;51090;51.512;11.332;2023-04-15T12:42:08;7.65;;;4.40;;
64674;SDS011;51090;51.512;11.332;2023-04-15T12:44:38;8.35;;;3.33;;
64674;SDS011;51090;51.512;11.332;2023-04-15T12:47:08;6.65;;;3.42;;
64674;SDS011;51090;51.512;11.332;2023-04-15T12:49:34;6.60;;;3.55;;
64674;SDS011;51090;51.512;11.332;2023-04-15T12:52:02;6.32;;;3.08;;
64674;SDS011;51090;51.512;11.332;2023-04-15T12:54:28;6.03;;;3.42;;
64674;SDS011;51090;51.512;11.332;2023-04-15T12:56:58;6.63;;;3.40;;
64674;SDS011;51090;51.512;11.332;2023-04-15T12:59:30;6.32;;;3.70;;
64674;SDS011;51090;51.512;11.332;2023-04-15T13:01:55;7.97;;;3.75;;
64674;SDS011;51090;51.512;11.332;2023-04-15T13:04:22;7.15;;;3.78;;
64674;SDS011;51090;51.512;11.332;2023-04-15T13:06:48;5.57;;;3.38;;
64674;SDS011;51090;51.512;11.332;2023-04-15T13:09:14;6.22;;;3.75;;
64674;SDS011;51090;51.512;11.332;2023-04-15T13:11:40;6.75;;;3.88;;
64674;SDS011;51090;51.512;11.332;2023-04-15T13:14:06;7.15;;;4.03;;
64674;SDS011;51090;51.512;11.332;2023-04-15T13:16:36;5.95;;;3.33;;
64674;SDS011;51090;51.512;11.332;2023-04-15T13:19:05;7.03;;;3.78;;
64674;SDS011;51090;51.512;11.332;2023-04-15T13:21:31;7.35;;;4.05;;
64674;SDS011;51090;51.512;11.332;2023-04-15T13:23:59;7.85;;;3.58;;
64674;SDS011;51090;51.512;11.332;2023-04-15T13:26:28;8.50;;;3.58;;
64674;SDS011;51090;51.512;11.332;2023-04-15T13:28:53;7.38;;;3.33;;
64674;SDS011;51090;51.512;11.332;2023-04-15T13:31:20;8.77;;;3.60;;
64674;SDS011;51090;51.512;11.332;2023-04-15T13:33:45;7.18;;;3.63;;
64674;SDS011;51090;51.512;11.332;2023-04-15T13:36:11;8.57;;;4.30;;
64674;SDS011;51090;51.512;11.332;2023-04-15T13:38:37;8.05;;;3.88;;
64674;SDS011;51090;51.512;11.332;2023-04-15T13:41:05;5.55;;;2.88;;
64674;SDS011;51090;51.512;11.332;2023-04-15T13:43:38;5.93;;;3.30;;
64674;SDS011;51090;51.512;11.332;2023-04-15T13:46:03;7.00;;;3.08;;
64674;SDS011;51090;51.512;11.332;2023-04-15T13:48:29;6.10;;;2.75;;
64674;SDS011;51090;51.512;11.332;2023-04-15T13:50:57;5.85;;;2.90;;
64674;SDS011;51090;51.512;11.332;2023-04-15T13:53:22;5.00;;;2.72;;
64674;SDS011;51090;51.512;11.332;2023-04-15T13:55:48;6.70;;;3.53;;
64674;SDS011;51090;51.512;11.332;2023-04-15T13:58:14;4.60;;;2.75;;
64674;SDS011;51090;51.512;11.332;2023-04-15T14:00:40;6.97;;;3.17;;
64674;SDS011;51090;51.512;11.332;2023-04-15T14:03:06;7.72;;;3.30;;
64674;SDS011;51090;51.512;11.332;2023-04-15T14:05:31;6.10;;;2.70;;
64674;SDS011;51090;51.512;11.332;2023-04-15T14:08:01;6.32;;;3.33;;
64674;SDS011;51090;51.512;11.332;2023-04-15T14:10:26;9.38;;;3.38;;
64674;SDS011;51090;51.512;11.332;2023-04-15T14:12:52;8.52;;;3.90;;
64674;SDS011;51090;51.512;11.332;2023-04-15T14:15:20;6.15;;;3.40;;
64674;SDS011;51090;51.512;11.332;2023-04-15T14:17:45;5.50;;;2.45;;
64674;SDS011;51090;51.512;11.332;2023-04-15T14:20:11;6.43;;;3.25;;
64674;SDS011;51090;51.512;11.332;2023-04-15T14:22:37;6.03;;;3.15;;
64674;SDS011;51090;51.512;11.332;2023-04-15T14:25:06;6.32;;;3.28;;
64674;SDS011;51090;51.512;11.332;2023-04-15T14:27:32;6.45;;;3.25;;
64674;SDS011;51090;51.512;11.332;2023-04-15T14:29:58;8.63;;;3.72;;
64674;SDS011;51090;51.512;11.332;2023-04-15T14:32:24;5.90;;;3.47;;
64674;SDS011;51090;51.512;11.332;2023-04-15T14:34:50;6.38;;;3.45;;
64674;SDS011;51090;51.512;11.332;2023-04-15T14:37:16;7.53;;;4.38;;
64674;SDS011;51090;51.512;11.332;2023-04-15T14:39:42;7.63;;;4.53;;
64674;SDS011;51090;51.512;11.332;2023-04-15T14:42:10;7.60;;;4.25;;
64674;SDS011;51090;51.512;11.332;2023-04-15T14:44:36;12.20;;;5.63;;
64674;SDS011;51090;51.512;11.332;2023-04-15T14:47:02;9.50;;;5.00;;
64674;SDS011;51090;51.512;11.332;2023-04-15T14:49:27;9.98;;;5.38;;
64674;SDS011;51090;51.512;11.332;2023-04-15T14:51:55;10.70;;;5.63;;